sensor_id;sensor_type;location;lat;lon;timestamp;P1;durP1;ratioP1;P2;durP2;ratioP2
43042;SDS011;28667;50.758;6.096;2024-01-25T00:01:29;30.40;;;6.13;;
43042;SDS011;28667;50.758;6.096;2024-01-25T00:03:55;22.50;;;5.53;;
43042;SDS011;28667;50.758;6.096;2024-01-25T00:06:20;27.08;;;5.78;;
43042;SDS011;28667;50.758;6.096;2024-01-25T00:08:46;32.65;;;6.15;;
43042;SDS011;28667;50.758;6.096;2024-01-25T00:11:13;31.70;;;7.10;;
43042;SDS011;28667;50.758;6.096;2024-01-25T00:13:38;32.65;;;5.63;;
43042;SDS011;28667;50.758;6.096;2024-01-25T00:16:05;26.95;;;5.85;;
43042;SDS011;28667;50.758;6.096;2024-01-25T00:18:30;38.40;;;6.85;;
43042;SDS011;28667;50.758;6.096;2024-01-25T00:20:56;37.83;;;6.13;;
43042;SDS011;28667;50.758;6.096;2024-01-25T00:23:22;30.88;;;6.47;;
43042;SDS011;28667;50.758;6.096;2024-01-25T00:25:47;35.83;;;6.57;;
43042;SDS011;28667;50.758;6.096;2024-01-25T00:28:13;31.73;;;6.53;;
43042;SDS011;28667;50.758;6.096;2024-01-25T00:30:39;24.38;;;5.47;;
43042;SDS011;28667;50.758;6.096;2024-01-25T00:33:05;31.92;;;6.63;;
43042;SDS011;28667;50.758;6.096;2024-01-25T00:35:31;26.92;;;5.45;;
43042;SDS011;28667;50.758;6.096;2024-01-25T00:37:57;34.67;;;6.47;;
43042;SDS011;28667;50.758;6.096;2024-01-25T00:40:23;30.23;;;5.97;;
43042;SDS011;28667;50.758;6.096;2024-01-25T00:42:49;22.52;;;5.68;;
43042;SDS011;28667;50.758;6.096;2024-01-25T00:45:21;38.80;;;6.93;;
43042;SDS011;28667;50.758;6.096;2024-01-25T00:47:48;25.30;;;5.80;;
43042;SDS011;28667;50.758;6.096;2024-01-25T00:50:15;26.15;;;6.53;;
43042;SDS011;28667;50.758;6.096;2024-01-25T00:52:49;34.10;;;6.18;;
43042;SDS011;28667;50.758;6.096;2024-01-25T00:55:15;24.98;;;5.90;;
43042;SDS011;28667;50.758;6.096;2024-01-25T00:57:41;37.75;;;6.63;;
43042;SDS011;28667;50.758;6.096;2024-01-25T01:00:08;28.20;;;5.97;;
43042;SDS011;28667;50.758;6.096;2024-01-25T01:02:42;33.67;;;7.30;;
43042;SDS011;28667;50.758;6.096;2024-01-25T01:05:09;26.33;;;6.32;;
43042;SDS011;28667;50.758;6.096;2024-01-25T01:07:36;37.97;;;6.07;;
43042;SDS011;28667;50.758;6.096;2024-01-25T01:10:02;19.60;;;5.65;;
43042;SDS011;28667;50.758;6.096;2024-01-25T01:12:29;35.00;;;6.50;;
43042;SDS011;28667;50.758;6.096;2024-01-25T01:14:55;31.73;;;6.68;;
43042;SDS011;28667;50.758;6.096;2024-01-25T01:17:21;22.83;;;6.45;;
43042;SDS011;28667;50.758;6.096;2024-01-25T01:19:47;27.45;;;6.15;;
43042;SDS011;28667;50.758;6.096;2024-01-25T01:22:12;25.73;;;6.22;;
43042;SDS011;28667;50.758;6.096;2024-01-25T01:24:38;33.97;;;6.07;;
43042;SDS011;28667;50.758;6.096;2024-01-25T01:27:04;27.40;;;7.20;;
43042;SDS011;28667;50.758;6.096;2024-01-25T01:29:29;34.63;;;6.50;;
43042;SDS011;28667;50.758;6.096;2024-01-25T01:31:55;27.17;;;7.22;;
43042;SDS011;28667;50.758;6.096;2024-01-25T01:34:21;35.15;;;7.22;;
43042;SDS011;28667;50.758;6.096;2024-01-25T01:36:47;30.58;;;6.60;;
43042;SDS011;28667;50.758;6.096;2024-01-25T01:39:12;41.33;;;8.25;;
43042;SDS011;28667;50.758;6.096;2024-01-25T01:41:38;36.38;;;7.22;;
43042;SDS011;28667;50.758;6.096;2024-01-25T01:44:04;35.67;;;6.22;;
43042;SDS011;28667;50.758;6.096;2024-01-25T01:48:59;44.53;;;8.48;;
43042;SDS011;28667;50.758;6.096;2024-01-25T01:51:26;35.72;;;6.72;;
43042;SDS011;28667;50.758;6.096;2024-01-25T01:53:52;36.05;;;7.93;;
43042;SDS011;28667;50.758;6.096;2024-01-25T01:56:19;30.17;;;7.40;;
43042;SDS011;28667;50.758;6.096;2024-01-25T01:58:45;41.47;;;8.50;;
43042;SDS011;28667;50.758;6.096;2024-01-25T02:01:13;36.75;;;6.75;;
43042;SDS011;28667;50.758;6.096;2024-01-25T02:03:40;30.95;;;6.93;;
43042;SDS011;28667;50.758;6.096;2024-01-25T02:06:07;39.00;;;7.55;;
43042;SDS011;28667;50.758;6.096;2024-01-25T02:08:33;34.72;;;7.28;;
43042;SDS011;28667;50.758;6.096;2024-01-25T02:10:59;29.02;;;7.10;;
43042;SDS011;28667;50.758;6.096;2024-01-25T02:13:24;25.88;;;6.50;;
43042;SDS011;28667;50.758;6.096;2024-01-25T02:15:51;32.03;;;8.10;;
43042;SDS011;28667;50.758;6.096;2024-01-25T02:18:17;28.55;;;6.97;;
43042;SDS011;28667;50.758;6.096;2024-01-25T02:20:42;29.25;;;6.63;;
43042;SDS011;28667;50.758;6.096;2024-01-25T02:23:08;35.95;;;7.60;;
43042;SDS011;28667;50.758;6.096;2024-01-25T02:25:34;29.85;;;6.80;;
43042;SDS011;28667;50.758;6.096;2024-01-25T02:27:59;40.67;;;7.93;;
43042;SDS011;28667;50.758;6.096;2024-01-25T02:30:25;44.60;;;7.45;;
43042;SDS011;28667;50.758;6.096;2024-01-25T02:32:51;35.60;;;6.95;;
43042;SDS011;28667;50.758;6.096;2024-01-25T02:35:17;33.30;;;6.85;;
43042;SDS011;28667;50.758;6.096;2024-01-25T02:37:43;35.00;;;6.93;;
43042;SDS011;28667;50.758;6.096;2024-01-25T02:40:09;25.80;;;7.47;;
43042;SDS011;28667;50.758;6.096;2024-01-25T02:42:35;27.92;;;5.95;;
43042;SDS011;28667;50.758;6.096;2024-01-25T02:45:01;28.83;;;7.63;;
43042;SDS011;28667;50.758;6.096;2024-01-25T02:47:26;36.03;;;7.72;;
43042;SDS011;28667;50.758;6.096;2024-01-25T02:49:52;29.63;;;7.20;;
43042;SDS011;28667;50.758;6.096;2024-01-25T02:52:18;33.40;;;7.18;;
43042;SDS011;28667;50.758;6.096;2024-01-25T02:54:43;30.02;;;7.05;;
43042;SDS011;28667;50.758;6.096;2024-01-25T02:57:09;22.17;;;5.72;;
43042;SDS011;28667;50.758;6.096;2024-01-25T02:59:35;27.13;;;6.28;;
43042;SDS011;28667;50.758;6.096;2024-01-25T03:02:01;34.08;;;6.72;;
43042;SDS011;28667;50.758;6.096;2024-01-25T03:04:26;29.70;;;8.50;;
43042;SDS011;28667;50.758;6.096;2024-01-25T03:06:52;47.15;;;7.82;;
43042;SDS011;28667;50.758;6.096;2024-01-25T03:09:18;30.98;;;6.55;;
43042;SDS011;28667;50.758;6.096;2024-01-25T03:11:43;31.65;;;7.75;;
43042;SDS011;28667;50.758;6.096;2024-01-25T03:14:09;29.77;;;6.25;;
43042;SDS011;28667;50.758;6.096;2024-01-25T03:16:35;26.25;;;7.15;;
43042;SDS011;28667;50.758;6.096;2024-01-25T03:19:00;19.23;;;4.95;;
43042;SDS011;28667;50.758;6.096;2024-01-25T03:21:27;23.00;;;6.43;;
43042;SDS011;28667;50.758;6.096;2024-01-25T03:23:54;33.13;;;7.00;;
43042;SDS011;28667;50.758;6.096;2024-01-25T03:26:19;33.55;;;6.80;;
43042;SDS011;28667;50.758;6.096;2024-01-25T03:28:45;27.50;;;6.30;;
43042;SDS011;28667;50.758;6.096;2024-01-25T03:31:11;28.15;;;6.95;;
43042;SDS011;28667;50.758;6.096;2024-01-25T03:33:37;29.00;;;6.80;;
43042;SDS011;28667;50.758;6.096;2024-01-25T03:36:03;29.55;;;6.63;;
43042;SDS011;28667;50.758;6.096;2024-01-25T03:38:29;31.48;;;6.80;;
43042;SDS011;28667;50.758;6.096;2024-01-25T03:40:55;18.70;;;6.53;;
43042;SDS011;28667;50.758;6.096;2024-01-25T03:43:24;30.13;;;6.03;;
43042;SDS011;28667;50.758;6.096;2024-01-25T03:45:51;33.20;;;5.13;;
43042;SDS011;28667;50.758;6.096;2024-01-25T03:48:16;33.75;;;6.05;;
43042;SDS011;28667;50.758;6.096;2024-01-25T03:50:42;26.05;;;5.75;;
43042;SDS011;28667;50.758;6.096;2024-01-25T03:53:08;39.92;;;6.68;;
43042;SDS011;28667;50.758;6.096;2024-01-25T03:55:34;31.25;;;6.60;;
43042;SDS011;28667;50.758;6.096;2024-01-25T03:57:59;29.98;;;6.60;;
43042;SDS011;28667;50.758;6.096;2024-01-25T04:00:25;26.60;;;6.40;;
43042;SDS011;28667;50.758;6.096;2024-01-25T04:02:51;23.02;;;5.40;;
43042;SDS011;28667;50.758;6.096;2024-01-25T04:05:17;31.65;;;6.13;;
43042;SDS011;28667;50.758;6.096;2024-01-25T04:07:42;30.42;;;5.57;;
43042;SDS011;28667;50.758;6.096;2024-01-25T04:10:08;29.83;;;5.45;;
43042;SDS011;28667;50.758;6.096;2024-01-25T04:12:34;21.42;;;5.05;;
43042;SDS011;28667;50.758;6.096;2024-01-25T04:15:00;37.28;;;7.63;;
43042;SDS011;28667;50.758;6.096;2024-01-25T04:17:26;29.15;;;5.93;;
43042;SDS011;28667;50.758;6.096;2024-01-25T04:19:51;30.10;;;6.53;;
43042;SDS011;28667;50.758;6.096;2024-01-25T04:22:17;28.83;;;5.75;;
43042;SDS011;28667;50.758;6.096;2024-01-25T04:24:43;33.15;;;6.97;;
43042;SDS011;28667;50.758;6.096;2024-01-25T04:27:09;37.13;;;7.07;;
43042;SDS011;28667;50.758;6.096;2024-01-25T04:29:39;24.17;;;5.00;;
43042;SDS011;28667;50.758;6.096;2024-01-25T04:32:06;28.67;;;5.68;;
43042;SDS011;28667;50.758;6.096;2024-01-25T04:34:32;23.83;;;6.20;;
43042;SDS011;28667;50.758;6.096;2024-01-25T04:36:58;31.80;;;5.65;;
43042;SDS011;28667;50.758;6.096;2024-01-25T04:39:24;25.85;;;5.70;;
43042;SDS011;28667;50.758;6.096;2024-01-25T04:41:49;25.95;;;5.15;;
43042;SDS011;28667;50.758;6.096;2024-01-25T04:44:15;22.75;;;5.75;;
43042;SDS011;28667;50.758;6.096;2024-01-25T04:46:41;25.83;;;5.25;;
43042;SDS011;28667;50.758;6.096;2024-01-25T04:49:07;22.02;;;5.55;;
43042;SDS011;28667;50.758;6.096;2024-01-25T04:51:33;24.10;;;7.20;;
43042;SDS011;28667;50.758;6.096;2024-01-25T04:53:58;32.88;;;6.10;;
43042;SDS011;28667;50.758;6.096;2024-01-25T04:56:24;26.52;;;6.20;;
43042;SDS011;28667;50.758;6.096;2024-01-25T04:58:50;25.45;;;6.40;;
43042;SDS011;28667;50.758;6.096;2024-01-25T05:01:16;28.83;;;6.68;;
43042;SDS011;28667;50.758;6.096;2024-01-25T05:03:42;27.95;;;6.72;;
43042;SDS011;28667;50.758;6.096;2024-01-25T05:06:07;25.42;;;7.45;;
43042;SDS011;28667;50.758;6.096;2024-01-25T05:08:33;21.00;;;6.13;;
43042;SDS011;28667;50.758;6.096;2024-01-25T05:10:59;32.83;;;7.80;;
43042;SDS011;28667;50.758;6.096;2024-01-25T05:13:25;32.17;;;7.63;;
43042;SDS011;28667;50.758;6.096;2024-01-25T05:15:51;31.90;;;6.93;;
43042;SDS011;28667;50.758;6.096;2024-01-25T05:18:16;25.95;;;6.55;;
43042;SDS011;28667;50.758;6.096;2024-01-25T05:20:42;27.77;;;8.15;;
43042;SDS011;28667;50.758;6.096;2024-01-25T05:23:08;29.90;;;7.78;;
43042;SDS011;28667;50.758;6.096;2024-01-25T05:25:33;24.45;;;6.78;;
43042;SDS011;28667;50.758;6.096;2024-01-25T05:27:59;28.25;;;7.60;;
43042;SDS011;28667;50.758;6.096;2024-01-25T05:30:25;25.27;;;6.72;;
43042;SDS011;28667;50.758;6.096;2024-01-25T05:32:51;28.80;;;7.10;;
43042;SDS011;28667;50.758;6.096;2024-01-25T05:35:19;34.05;;;7.97;;
43042;SDS011;28667;50.758;6.096;2024-01-25T05:37:45;25.92;;;6.65;;
43042;SDS011;28667;50.758;6.096;2024-01-25T05:40:11;27.88;;;7.38;;
43042;SDS011;28667;50.758;6.096;2024-01-25T05:42:37;32.67;;;7.70;;
43042;SDS011;28667;50.758;6.096;2024-01-25T05:45:03;29.98;;;8.20;;
43042;SDS011;28667;50.758;6.096;2024-01-25T05:47:29;27.38;;;7.18;;
43042;SDS011;28667;50.758;6.096;2024-01-25T05:49:55;22.23;;;7.57;;
43042;SDS011;28667;50.758;6.096;2024-01-25T05:52:21;30.27;;;8.27;;
43042;SDS011;28667;50.758;6.096;2024-01-25T05:54:49;28.67;;;7.30;;
43042;SDS011;28667;50.758;6.096;2024-01-25T05:57:15;24.85;;;6.65;;
43042;SDS011;28667;50.758;6.096;2024-01-25T05:59:42;26.92;;;6.85;;
43042;SDS011;28667;50.758;6.096;2024-01-25T06:02:08;28.08;;;9.57;;
43042;SDS011;28667;50.758;6.096;2024-01-25T06:04:34;32.25;;;8.32;;
43042;SDS011;28667;50.758;6.096;2024-01-25T06:06:59;29.20;;;8.10;;
43042;SDS011;28667;50.758;6.096;2024-01-25T06:09:25;34.10;;;8.18;;
43042;SDS011;28667;50.758;6.096;2024-01-25T06:11:51;29.05;;;7.60;;
43042;SDS011;28667;50.758;6.096;2024-01-25T06:14:17;34.47;;;7.78;;
43042;SDS011;28667;50.758;6.096;2024-01-25T06:16:43;30.60;;;8.77;;
43042;SDS011;28667;50.758;6.096;2024-01-25T06:19:10;28.63;;;7.60;;
43042;SDS011;28667;50.758;6.096;2024-01-25T06:21:36;29.83;;;8.00;;
43042;SDS011;28667;50.758;6.096;2024-01-25T06:24:03;31.70;;;8.07;;
43042;SDS011;28667;50.758;6.096;2024-01-25T06:26:30;31.55;;;7.03;;
43042;SDS011;28667;50.758;6.096;2024-01-25T06:28:55;29.35;;;7.90;;
43042;SDS011;28667;50.758;6.096;2024-01-25T06:31:24;42.10;;;8.95;;
43042;SDS011;28667;50.758;6.096;2024-01-25T06:33:51;35.75;;;7.97;;
43042;SDS011;28667;50.758;6.096;2024-01-25T06:36:21;45.70;;;10.02;;
43042;SDS011;28667;50.758;6.096;2024-01-25T06:38:47;30.42;;;8.10;;
43042;SDS011;28667;50.758;6.096;2024-01-25T06:41:13;35.30;;;8.02;;
43042;SDS011;28667;50.758;6.096;2024-01-25T06:43:39;25.52;;;7.35;;
43042;SDS011;28667;50.758;6.096;2024-01-25T06:46:06;31.52;;;9.13;;
43042;SDS011;28667;50.758;6.096;2024-01-25T06:48:32;36.33;;;9.50;;
43042;SDS011;28667;50.758;6.096;2024-01-25T06:50:58;32.42;;;8.80;;
43042;SDS011;28667;50.758;6.096;2024-01-25T06:53:24;27.33;;;8.30;;
43042;SDS011;28667;50.758;6.096;2024-01-25T06:55:49;26.55;;;7.82;;
43042;SDS011;28667;50.758;6.096;2024-01-25T06:58:15;41.30;;;9.63;;
43042;SDS011;28667;50.758;6.096;2024-01-25T07:00:41;39.20;;;9.68;;
43042;SDS011;28667;50.758;6.096;2024-01-25T07:03:07;32.08;;;8.70;;
43042;SDS011;28667;50.758;6.096;2024-01-25T07:05:34;29.27;;;8.10;;
43042;SDS011;28667;50.758;6.096;2024-01-25T07:08:01;36.42;;;9.85;;
43042;SDS011;28667;50.758;6.096;2024-01-25T07:10:27;33.15;;;9.45;;
43042;SDS011;28667;50.758;6.096;2024-01-25T07:12:53;39.97;;;9.40;;
43042;SDS011;28667;50.758;6.096;2024-01-25T07:15:19;33.97;;;9.77;;
43042;SDS011;28667;50.758;6.096;2024-01-25T07:17:46;31.13;;;7.40;;
43042;SDS011;28667;50.758;6.096;2024-01-25T07:20:12;38.05;;;9.07;;
43042;SDS011;28667;50.758;6.096;2024-01-25T07:22:38;36.47;;;9.88;;
43042;SDS011;28667;50.758;6.096;2024-01-25T07:25:04;36.03;;;9.48;;
43042;SDS011;28667;50.758;6.096;2024-01-25T07:27:30;40.08;;;10.75;;
43042;SDS011;28667;50.758;6.096;2024-01-25T07:29:56;45.47;;;10.50;;
43042;SDS011;28667;50.758;6.096;2024-01-25T07:32:22;35.22;;;10.25;;
43042;SDS011;28667;50.758;6.096;2024-01-25T07:34:49;32.05;;;10.65;;
43042;SDS011;28667;50.758;6.096;2024-01-25T07:37:15;50.28;;;10.82;;
43042;SDS011;28667;50.758;6.096;2024-01-25T07:39:43;39.88;;;10.73;;
43042;SDS011;28667;50.758;6.096;2024-01-25T07:42:09;42.92;;;10.95;;
43042;SDS011;28667;50.758;6.096;2024-01-25T07:44:35;44.42;;;11.88;;
43042;SDS011;28667;50.758;6.096;2024-01-25T07:47:01;39.47;;;11.45;;
43042;SDS011;28667;50.758;6.096;2024-01-25T07:49:27;53.63;;;13.00;;
43042;SDS011;28667;50.758;6.096;2024-01-25T07:51:54;53.45;;;14.13;;
43042;SDS011;28667;50.758;6.096;2024-01-25T07:54:21;49.50;;;11.48;;
43042;SDS011;28667;50.758;6.096;2024-01-25T07:56:47;47.65;;;11.95;;
43042;SDS011;28667;50.758;6.096;2024-01-25T07:59:13;55.15;;;13.38;;
43042;SDS011;28667;50.758;6.096;2024-01-25T08:01:39;54.55;;;12.30;;
43042;SDS011;28667;50.758;6.096;2024-01-25T08:04:04;39.58;;;12.23;;
43042;SDS011;28667;50.758;6.096;2024-01-25T08:06:30;34.53;;;9.82;;
43042;SDS011;28667;50.758;6.096;2024-01-25T08:08:56;43.13;;;12.15;;
43042;SDS011;28667;50.758;6.096;2024-01-25T08:11:22;36.88;;;9.45;;
43042;SDS011;28667;50.758;6.096;2024-01-25T08:13:49;37.22;;;9.65;;
43042;SDS011;28667;50.758;6.096;2024-01-25T08:16:15;40.03;;;11.55;;
43042;SDS011;28667;50.758;6.096;2024-01-25T08:18:47;41.97;;;11.55;;
43042;SDS011;28667;50.758;6.096;2024-01-25T08:21:14;44.33;;;11.43;;
43042;SDS011;28667;50.758;6.096;2024-01-25T08:23:40;43.83;;;12.13;;
43042;SDS011;28667;50.758;6.096;2024-01-25T08:26:06;38.25;;;10.77;;
43042;SDS011;28667;50.758;6.096;2024-01-25T08:28:35;48.45;;;11.43;;
43042;SDS011;28667;50.758;6.096;2024-01-25T08:31:04;43.20;;;9.87;;
43042;SDS011;28667;50.758;6.096;2024-01-25T08:33:30;33.58;;;9.88;;
43042;SDS011;28667;50.758;6.096;2024-01-25T08:35:56;23.98;;;8.25;;
43042;SDS011;28667;50.758;6.096;2024-01-25T08:38:21;26.98;;;8.57;;
43042;SDS011;28667;50.758;6.096;2024-01-25T08:40:47;41.72;;;10.45;;
43042;SDS011;28667;50.758;6.096;2024-01-25T08:43:13;30.00;;;10.05;;
43042;SDS011;28667;50.758;6.096;2024-01-25T08:45:39;31.65;;;8.88;;
43042;SDS011;28667;50.758;6.096;2024-01-25T08:48:05;25.95;;;8.20;;
43042;SDS011;28667;50.758;6.096;2024-01-25T08:50:31;30.85;;;7.80;;
43042;SDS011;28667;50.758;6.096;2024-01-25T08:52:58;41.58;;;9.32;;
43042;SDS011;28667;50.758;6.096;2024-01-25T08:55:24;33.17;;;8.82;;
43042;SDS011;28667;50.758;6.096;2024-01-25T08:57:50;29.85;;;7.88;;
43042;SDS011;28667;50.758;6.096;2024-01-25T09:00:16;37.95;;;8.80;;
43042;SDS011;28667;50.758;6.096;2024-01-25T09:02:43;42.92;;;10.75;;
43042;SDS011;28667;50.758;6.096;2024-01-25T09:05:10;37.15;;;9.18;;
43042;SDS011;28667;50.758;6.096;2024-01-25T09:07:35;30.40;;;8.20;;
43042;SDS011;28667;50.758;6.096;2024-01-25T09:10:02;36.60;;;10.43;;
43042;SDS011;28667;50.758;6.096;2024-01-25T09:12:29;35.97;;;9.48;;
43042;SDS011;28667;50.758;6.096;2024-01-25T09:14:55;31.85;;;9.73;;
43042;SDS011;28667;50.758;6.096;2024-01-25T09:17:21;30.00;;;8.75;;
43042;SDS011;28667;50.758;6.096;2024-01-25T09:19:50;41.63;;;8.60;;
43042;SDS011;28667;50.758;6.096;2024-01-25T09:22:16;31.48;;;8.63;;
43042;SDS011;28667;50.758;6.096;2024-01-25T09:24:44;32.95;;;10.07;;
43042;SDS011;28667;50.758;6.096;2024-01-25T09:27:12;32.67;;;9.60;;
43042;SDS011;28667;50.758;6.096;2024-01-25T09:29:39;47.08;;;9.75;;
43042;SDS011;28667;50.758;6.096;2024-01-25T09:32:08;35.67;;;9.93;;
43042;SDS011;28667;50.758;6.096;2024-01-25T09:34:35;31.33;;;7.90;;
43042;SDS011;28667;50.758;6.096;2024-01-25T09:37:02;30.70;;;8.68;;
43042;SDS011;28667;50.758;6.096;2024-01-25T09:39:28;28.15;;;8.48;;
43042;SDS011;28667;50.758;6.096;2024-01-25T09:41:54;33.83;;;8.10;;
43042;SDS011;28667;50.758;6.096;2024-01-25T09:44:19;30.85;;;7.75;;
43042;SDS011;28667;50.758;6.096;2024-01-25T09:46:46;31.15;;;8.15;;
43042;SDS011;28667;50.758;6.096;2024-01-25T09:49:11;31.85;;;8.30;;
43042;SDS011;28667;50.758;6.096;2024-01-25T09:51:38;30.85;;;8.13;;
43042;SDS011;28667;50.758;6.096;2024-01-25T09:54:06;35.50;;;9.38;;
43042;SDS011;28667;50.758;6.096;2024-01-25T09:56:32;31.60;;;6.93;;
43042;SDS011;28667;50.758;6.096;2024-01-25T09:58:59;35.30;;;6.80;;
43042;SDS011;28667;50.758;6.096;2024-01-25T10:01:26;35.78;;;6.35;;
43042;SDS011;28667;50.758;6.096;2024-01-25T10:03:52;31.98;;;6.45;;
43042;SDS011;28667;50.758;6.096;2024-01-25T10:06:18;21.60;;;5.28;;
43042;SDS011;28667;50.758;6.096;2024-01-25T10:08:44;33.55;;;6.80;;
43042;SDS011;28667;50.758;6.096;2024-01-25T10:11:10;37.45;;;6.32;;
43042;SDS011;28667;50.758;6.096;2024-01-25T10:13:40;26.38;;;5.85;;
43042;SDS011;28667;50.758;6.096;2024-01-25T10:16:12;23.05;;;6.28;;
43042;SDS011;28667;50.758;6.096;2024-01-25T10:18:40;28.95;;;6.72;;
43042;SDS011;28667;50.758;6.096;2024-01-25T10:21:08;25.70;;;5.90;;
43042;SDS011;28667;50.758;6.096;2024-01-25T10:23:35;23.38;;;5.57;;
43042;SDS011;28667;50.758;6.096;2024-01-25T10:26:00;25.45;;;4.72;;
43042;SDS011;28667;50.758;6.096;2024-01-25T10:28:27;18.35;;;5.18;;
43042;SDS011;28667;50.758;6.096;2024-01-25T10:30:59;22.52;;;5.18;;
43042;SDS011;28667;50.758;6.096;2024-01-25T10:33:26;26.30;;;5.65;;
43042;SDS011;28667;50.758;6.096;2024-01-25T10:35:56;19.67;;;4.53;;
43042;SDS011;28667;50.758;6.096;2024-01-25T10:38:31;26.00;;;7.07;;
43042;SDS011;28667;50.758;6.096;2024-01-25T10:43:25;20.42;;;4.65;;
43042;SDS011;28667;50.758;6.096;2024-01-25T10:45:51;23.05;;;5.25;;
43042;SDS011;28667;50.758;6.096;2024-01-25T10:48:20;14.02;;;4.68;;
43042;SDS011;28667;50.758;6.096;2024-01-25T10:50:47;17.52;;;4.43;;
43042;SDS011;28667;50.758;6.096;2024-01-25T10:53:14;19.83;;;5.05;;
43042;SDS011;28667;50.758;6.096;2024-01-25T10:55:42;17.67;;;3.88;;
43042;SDS011;28667;50.758;6.096;2024-01-25T10:58:08;32.20;;;6.47;;
43042;SDS011;28667;50.758;6.096;2024-01-25T11:00:34;22.65;;;4.38;;
43042;SDS011;28667;50.758;6.096;2024-01-25T11:03:00;18.77;;;4.75;;
43042;SDS011;28667;50.758;6.096;2024-01-25T11:05:26;17.33;;;4.82;;
43042;SDS011;28667;50.758;6.096;2024-01-25T11:07:53;19.55;;;4.75;;
43042;SDS011;28667;50.758;6.096;2024-01-25T11:10:20;18.63;;;4.53;;
43042;SDS011;28667;50.758;6.096;2024-01-25T11:15:22;22.17;;;4.30;;
43042;SDS011;28667;50.758;6.096;2024-01-25T11:17:55;23.52;;;5.00;;
43042;SDS011;28667;50.758;6.096;2024-01-25T11:20:22;22.83;;;4.70;;
43042;SDS011;28667;50.758;6.096;2024-01-25T11:22:54;20.45;;;4.65;;
43042;SDS011;28667;50.758;6.096;2024-01-25T11:25:39;29.50;;;5.13;;
43042;SDS011;28667;50.758;6.096;2024-01-25T11:28:05;13.60;;;3.50;;
43042;SDS011;28667;50.758;6.096;2024-01-25T11:30:33;19.15;;;4.05;;
43042;SDS011;28667;50.758;6.096;2024-01-25T11:33:00;15.85;;;3.97;;
43042;SDS011;28667;50.758;6.096;2024-01-25T11:35:26;24.55;;;4.30;;
43042;SDS011;28667;50.758;6.096;2024-01-25T11:37:52;21.85;;;5.00;;
43042;SDS011;28667;50.758;6.096;2024-01-25T11:40:18;15.35;;;4.40;;
43042;SDS011;28667;50.758;6.096;2024-01-25T11:42:45;24.48;;;4.32;;
43042;SDS011;28667;50.758;6.096;2024-01-25T11:45:13;19.13;;;4.25;;
43042;SDS011;28667;50.758;6.096;2024-01-25T11:47:40;17.38;;;3.75;;
43042;SDS011;28667;50.758;6.096;2024-01-25T11:50:07;19.95;;;4.45;;
43042;SDS011;28667;50.758;6.096;2024-01-25T11:52:34;13.63;;;4.05;;
43042;SDS011;28667;50.758;6.096;2024-01-25T11:57:30;23.33;;;4.97;;
43042;SDS011;28667;50.758;6.096;2024-01-25T12:00:00;14.45;;;3.60;;
43042;SDS011;28667;50.758;6.096;2024-01-25T12:02:33;17.02;;;5.15;;
43042;SDS011;28667;50.758;6.096;2024-01-25T12:04:59;17.67;;;4.47;;
43042;SDS011;28667;50.758;6.096;2024-01-25T12:07:27;11.02;;;3.25;;
43042;SDS011;28667;50.758;6.096;2024-01-25T12:10:05;17.90;;;4.25;;
43042;SDS011;28667;50.758;6.096;2024-01-25T12:12:32;22.38;;;3.58;;
43042;SDS011;28667;50.758;6.096;2024-01-25T12:15:01;17.48;;;4.13;;
43042;SDS011;28667;50.758;6.096;2024-01-25T12:17:29;18.98;;;3.47;;
43042;SDS011;28667;50.758;6.096;2024-01-25T12:19:58;16.52;;;3.60;;
43042;SDS011;28667;50.758;6.096;2024-01-25T12:22:28;12.07;;;4.47;;
43042;SDS011;28667;50.758;6.096;2024-01-25T12:24:55;13.55;;;3.70;;
43042;SDS011;28667;50.758;6.096;2024-01-25T12:27:21;22.63;;;4.63;;
43042;SDS011;28667;50.758;6.096;2024-01-25T12:29:48;19.63;;;3.47;;
43042;SDS011;28667;50.758;6.096;2024-01-25T12:32:16;23.33;;;3.90;;
43042;SDS011;28667;50.758;6.096;2024-01-25T12:34:43;16.52;;;3.40;;
43042;SDS011;28667;50.758;6.096;2024-01-25T12:37:20;19.05;;;4.05;;
43042;SDS011;28667;50.758;6.096;2024-01-25T12:39:46;13.02;;;3.42;;
43042;SDS011;28667;50.758;6.096;2024-01-25T12:42:12;17.08;;;2.85;;
43042;SDS011;28667;50.758;6.096;2024-01-25T12:44:38;12.88;;;3.30;;
43042;SDS011;28667;50.758;6.096;2024-01-25T12:47:04;13.50;;;3.22;;
43042;SDS011;28667;50.758;6.096;2024-01-25T12:49:32;20.48;;;4.05;;
43042;SDS011;28667;50.758;6.096;2024-01-25T12:51:59;17.95;;;3.38;;
43042;SDS011;28667;50.758;6.096;2024-01-25T12:54:25;19.02;;;3.45;;
43042;SDS011;28667;50.758;6.096;2024-01-25T12:56:51;17.25;;;3.70;;
43042;SDS011;28667;50.758;6.096;2024-01-25T12:59:17;14.80;;;3.95;;
43042;SDS011;28667;50.758;6.096;2024-01-25T13:01:43;23.80;;;4.03;;
43042;SDS011;28667;50.758;6.096;2024-01-25T13:04:09;22.42;;;4.38;;
43042;SDS011;28667;50.758;6.096;2024-01-25T13:06:34;14.80;;;3.25;;
43042;SDS011;28667;50.758;6.096;2024-01-25T13:09:01;12.43;;;2.72;;
43042;SDS011;28667;50.758;6.096;2024-01-25T13:11:28;18.02;;;4.05;;
43042;SDS011;28667;50.758;6.096;2024-01-25T13:13:55;20.35;;;4.32;;
43042;SDS011;28667;50.758;6.096;2024-01-25T13:16:20;11.50;;;3.33;;
43042;SDS011;28667;50.758;6.096;2024-01-25T13:18:46;19.92;;;3.95;;
43042;SDS011;28667;50.758;6.096;2024-01-25T13:21:12;24.65;;;7.18;;
43042;SDS011;28667;50.758;6.096;2024-01-25T13:23:38;12.20;;;3.17;;
43042;SDS011;28667;50.758;6.096;2024-01-25T13:26:04;18.02;;;2.75;;
43042;SDS011;28667;50.758;6.096;2024-01-25T13:28:29;13.82;;;3.03;;
43042;SDS011;28667;50.758;6.096;2024-01-25T13:30:56;14.15;;;3.30;;
43042;SDS011;28667;50.758;6.096;2024-01-25T13:33:22;17.63;;;3.15;;
43042;SDS011;28667;50.758;6.096;2024-01-25T13:35:48;15.23;;;2.88;;
43042;SDS011;28667;50.758;6.096;2024-01-25T13:38:14;12.20;;;2.35;;
43042;SDS011;28667;50.758;6.096;2024-01-25T13:40:41;15.20;;;2.78;;
43042;SDS011;28667;50.758;6.096;2024-01-25T13:43:07;19.30;;;3.10;;
43042;SDS011;28667;50.758;6.096;2024-01-25T13:45:33;15.02;;;3.75;;
43042;SDS011;28667;50.758;6.096;2024-01-25T13:47:59;16.17;;;2.95;;
43042;SDS011;28667;50.758;6.096;2024-01-25T13:50:25;15.45;;;3.17;;
43042;SDS011;28667;50.758;6.096;2024-01-25T13:52:51;10.32;;;2.90;;
43042;SDS011;28667;50.758;6.096;2024-01-25T13:55:17;7.55;;;2.25;;
43042;SDS011;28667;50.758;6.096;2024-01-25T13:57:42;12.52;;;3.05;;
43042;SDS011;28667;50.758;6.096;2024-01-25T14:00:08;16.20;;;2.78;;
43042;SDS011;28667;50.758;6.096;2024-01-25T14:02:35;9.95;;;2.30;;
43042;SDS011;28667;50.758;6.096;2024-01-25T14:05:01;11.40;;;2.28;;
43042;SDS011;28667;50.758;6.096;2024-01-25T14:07:27;13.10;;;2.65;;
43042;SDS011;28667;50.758;6.096;2024-01-25T14:09:53;16.00;;;2.80;;
43042;SDS011;28667;50.758;6.096;2024-01-25T14:12:19;12.88;;;2.67;;
43042;SDS011;28667;50.758;6.096;2024-01-25T14:14:44;13.88;;;2.70;;
43042;SDS011;28667;50.758;6.096;2024-01-25T14:17:10;10.73;;;2.30;;
43042;SDS011;28667;50.758;6.096;2024-01-25T14:19:36;15.13;;;2.85;;
43042;SDS011;28667;50.758;6.096;2024-01-25T14:22:02;13.38;;;2.70;;
43042;SDS011;28667;50.758;6.096;2024-01-25T14:24:27;10.73;;;2.67;;
43042;SDS011;28667;50.758;6.096;2024-01-25T14:26:53;9.73;;;2.70;;
43042;SDS011;28667;50.758;6.096;2024-01-25T14:29:19;14.85;;;2.53;;
43042;SDS011;28667;50.758;6.096;2024-01-25T14:31:45;12.02;;;2.63;;
43042;SDS011;28667;50.758;6.096;2024-01-25T14:34:11;11.45;;;2.50;;
43042;SDS011;28667;50.758;6.096;2024-01-25T14:36:36;15.75;;;2.92;;
43042;SDS011;28667;50.758;6.096;2024-01-25T14:39:02;11.35;;;2.38;;